sensor_id;sensor_type;location;lat;lon;timestamp;pressure;altitude;pressure_sealevel;temperature
30001;BMP280;16845;48.670;9.000;2023-12-07T00:02:27;95718.81;;;4.68
30001;BMP280;16845;48.670;9.000;2023-12-07T00:04:54;95715.47;;;4.77
30001;BMP280;16845;48.670;9.000;2023-12-07T00:07:20;95712.28;;;4.36
30001;BMP280;16845;48.670;9.000;2023-12-07T00:09:47;95718.94;;;4.25
30001;BMP280;16845;48.670;9.000;2023-12-07T00:12:14;95723.09;;;4.14
30001;BMP280;16845;48.670;9.000;2023-12-07T00:14:41;95723.13;;;4.11
30001;BMP280;16845;48.670;9.000;2023-12-07T00:17:07;95721.47;;;3.95
30001;BMP280;16845;48.670;9.000;2023-12-07T00:19:35;95729.75;;;3.94
30001;BMP280;16845;48.670;9.000;2023-12-07T00:22:02;95736.34;;;4.16
30001;BMP280;16845;48.670;9.000;2023-12-07T00:24:29;95735.53;;;4.14
30001;BMP280;16845;48.670;9.000;2023-12-07T00:26:55;95729.66;;;4.50
30001;BMP280;16845;48.670;9.000;2023-12-07T00:29:22;95723.00;;;4.53
30001;BMP280;16845;48.670;9.000;2023-12-07T00:31:49;95726.38;;;4.43
30001;BMP280;16845;48.670;9.000;2023-12-07T00:34:15;95729.63;;;4.61
30001;BMP280;16845;48.670;9.000;2023-12-07T00:36:43;95732.13;;;4.53
30001;BMP280;16845;48.670;9.000;2023-12-07T00:39:10;95732.94;;;4.56
30001;BMP280;16845;48.670;9.000;2023-12-07T00:41:36;95732.91;;;4.62
30001;BMP280;16845;48.670;9.000;2023-12-07T00:44:03;95732.94;;;4.56
30001;BMP280;16845;48.670;9.000;2023-12-07T00:46:30;95728.78;;;4.62
30001;BMP280;16845;48.670;9.000;2023-12-07T00:48:56;95751.25;;;4.22
30001;BMP280;16845;48.670;9.000;2023-12-07T00:51:23;95738.81;;;4.12
30001;BMP280;16845;48.670;9.000;2023-12-07T00:53:51;95735.47;;;4.40
30001;BMP280;16845;48.670;9.000;2023-12-07T00:56:17;95732.16;;;4.35
30001;BMP280;16845;48.670;9.000;2023-12-07T00:58:44;95739.63;;;4.38
30001;BMP280;16845;48.670;9.000;2023-12-07T01:01:10;95730.50;;;4.43
30001;BMP280;16845;48.670;9.000;2023-12-07T01:03:37;95737.13;;;4.39
30001;BMP280;16845;48.670;9.000;2023-12-07T01:06:04;95732.97;;;4.47
30001;BMP280;16845;48.670;9.000;2023-12-07T01:08:31;95729.59;;;4.60
30001;BMP280;16845;48.670;9.000;2023-12-07T01:10:58;95730.50;;;4.43
30001;BMP280;16845;48.670;9.000;2023-12-07T01:13:25;95742.09;;;4.38
30001;BMP280;16845;48.670;9.000;2023-12-07T01:15:52;95746.19;;;4.53
30001;BMP280;16845;48.670;9.000;2023-12-07T01:18:18;95746.16;;;4.61
30001;BMP280;16845;48.670;9.000;2023-12-07T01:20:45;95752.84;;;4.44
30001;BMP280;16845;48.670;9.000;2023-12-07T01:23:11;95755.34;;;4.49
30001;BMP280;16845;48.670;9.000;2023-12-07T01:25:42;95749.47;;;4.63
30001;BMP280;16845;48.670;9.000;2023-12-07T01:28:10;95742.88;;;4.54
30001;BMP280;16845;48.670;9.000;2023-12-07T01:30:36;95760.28;;;4.52
30001;BMP280;16845;48.670;9.000;2023-12-07T01:33:03;95765.28;;;4.43
30001;BMP280;16845;48.670;9.000;2023-12-07T01:35:29;95774.41;;;4.36
30001;BMP280;16845;48.670;9.000;2023-12-07T01:37:56;95775.25;;;4.32
30001;BMP280;16845;48.670;9.000;2023-12-07T01:40:23;95772.75;;;4.26
30001;BMP280;16845;48.670;9.000;2023-12-07T01:42:50;95776.06;;;4.12
30001;BMP280;16845;48.670;9.000;2023-12-07T01:45:18;95770.28;;;4.01
30001;BMP280;16845;48.670;9.000;2023-12-07T01:47:46;95777.72;;;4.01
30001;BMP280;16845;48.670;9.000;2023-12-07T01:50:13;95776.09;;;3.89
30001;BMP280;16845;48.670;9.000;2023-12-07T01:52:43;95785.19;;;3.87
30001;BMP280;16845;48.670;9.000;2023-12-07T01:55:11;95783.53;;;3.80
30001;BMP280;16845;48.670;9.000;2023-12-07T01:57:40;95785.16;;;3.72
30001;BMP280;16845;48.670;9.000;2023-12-07T02:00:07;95781.88;;;3.60
30001;BMP280;16845;48.670;9.000;2023-12-07T02:02:36;95778.56;;;3.56
30001;BMP280;16845;48.670;9.000;2023-12-07T02:05:03;95788.47;;;3.71
30001;BMP280;16845;48.670;9.000;2023-12-07T02:07:30;95777.75;;;3.75
30001;BMP280;16845;48.670;9.000;2023-12-07T02:09:57;95779.41;;;3.79
30001;BMP280;16845;48.670;9.000;2023-12-07T02:12:24;95779.41;;;3.91
30001;BMP280;16845;48.670;9.000;2023-12-07T02:14:51;95772.78;;;3.87
30001;BMP280;16845;48.670;9.000;2023-12-07T02:17:23;95771.97;;;3.72
30001;BMP280;16845;48.670;9.000;2023-12-07T02:20:00;95774.44;;;3.70
30001;BMP280;16845;48.670;9.000;2023-12-07T02:22:32;95772.78;;;3.69
30001;BMP280;16845;48.670;9.000;2023-12-07T02:25:05;95768.63;;;3.88
30001;BMP280;16845;48.670;9.000;2023-12-07T02:27:38;95767.00;;;4.05
30001;BMP280;16845;48.670;9.000;2023-12-07T02:30:06;95766.13;;;4.16
30001;BMP280;16845;48.670;9.000;2023-12-07T02:32:33;95768.59;;;4.30
30001;BMP280;16845;48.670;9.000;2023-12-07T02:34:59;95762.81;;;4.17
30001;BMP280;16845;48.670;9.000;2023-12-07T02:37:28;95765.31;;;4.22
30001;BMP280;16845;48.670;9.000;2023-12-07T02:39:58;95766.13;;;4.24
30001;BMP280;16845;48.670;9.000;2023-12-07T02:42:26;95766.13;;;4.16
30001;BMP280;16845;48.670;9.000;2023-12-07T02:44:54;95765.31;;;4.23
30001;BMP280;16845;48.670;9.000;2023-12-07T02:47:21;95760.34;;;4.28
30001;BMP280;16845;48.670;9.000;2023-12-07T02:49:48;95764.47;;;4.33
30001;BMP280;16845;48.670;9.000;2023-12-07T02:52:14;95761.97;;;4.30
30001;BMP280;16845;48.670;9.000;2023-12-07T02:54:41;95757.88;;;4.14
30001;BMP280;16845;48.670;9.000;2023-12-07T02:57:08;95762.84;;;4.14
30001;BMP280;16845;48.670;9.000;2023-12-07T02:59:34;95771.09;;;4.07
30001;BMP280;16845;48.670;9.000;2023-12-07T03:02:03;95761.16;;;4.07
30001;BMP280;16845;48.670;9.000;2023-12-07T03:04:29;95772.75;;;4.08
30001;BMP280;16845;48.670;9.000;2023-12-07T03:06:56;95773.59;;;4.01
30001;BMP280;16845;48.670;9.000;2023-12-07T03:09:23;95766.16;;;3.98
30001;BMP280;16845;48.670;9.000;2023-12-07T03:11:49;95770.28;;;4.07
30001;BMP280;16845;48.670;9.000;2023-12-07T03:14:16;95776.09;;;4.04
30001;BMP280;16845;48.670;9.000;2023-12-07T03:16:42;95767.81;;;4.02
30001;BMP280;16845;48.670;9.000;2023-12-07T03:19:10;95772.78;;;3.99
30001;BMP280;16845;48.670;9.000;2023-12-07T03:21:38;95780.22;;;3.84
30001;BMP280;16845;48.670;9.000;2023-12-07T03:24:06;95769.47;;;3.84
30001;BMP280;16845;48.670;9.000;2023-12-07T03:26:33;95776.09;;;3.61
30001;BMP280;16845;48.670;9.000;2023-12-07T03:29:00;95772.78;;;3.54
30001;BMP280;16845;48.670;9.000;2023-12-07T03:31:27;95771.94;;;3.63
30001;BMP280;16845;48.670;9.000;2023-12-07T03:33:54;95773.59;;;3.49
30001;BMP280;16845;48.670;9.000;2023-12-07T03:36:22;95786.00;;;3.58
30001;BMP280;16845;48.670;9.000;2023-12-07T03:38:49;95772.75;;;3.60
30001;BMP280;16845;48.670;9.000;2023-12-07T03:41:15;95776.06;;;3.55
30001;BMP280;16845;48.670;9.000;2023-12-07T03:43:42;95786.78;;;3.40
30001;BMP280;16845;48.670;9.000;2023-12-07T03:46:09;95794.28;;;3.52
30001;BMP280;16845;48.670;9.000;2023-12-07T03:48:35;95790.94;;;3.50
30001;BMP280;16845;48.670;9.000;2023-12-07T03:51:02;95785.09;;;3.18
30001;BMP280;16845;48.670;9.000;2023-12-07T03:53:30;95777.56;;;2.91
30001;BMP280;16845;48.670;9.000;2023-12-07T03:55:56;95792.31;;;2.70
30001;BMP280;16845;48.670;9.000;2023-12-07T03:58:23;95795.56;;;2.51
30001;BMP280;16845;48.670;9.000;2023-12-07T04:00:50;95803.81;;;2.50
30001;BMP280;16845;48.670;9.000;2023-12-07T04:03:16;95794.69;;;2.46
30001;BMP280;16845;48.670;9.000;2023-12-07T04:05:43;95793.16;;;2.69
30001;BMP280;16845;48.670;9.000;2023-12-07T04:08:10;95795.56;;;2.57
30001;BMP280;16845;48.670;9.000;2023-12-07T04:10:38;95802.84;;;2.28
30001;BMP280;16845;48.670;9.000;2023-12-07T04:13:04;95807.75;;;2.22
30001;BMP280;16845;48.670;9.000;2023-12-07T04:15:31;95804.41;;;2.21
30001;BMP280;16845;48.670;9.000;2023-12-07T04:17:57;95806.22;;;2.38
30001;BMP280;16845;48.670;9.000;2023-12-07T04:20:24;95810.19;;;2.19
30001;BMP280;16845;48.670;9.000;2023-12-07T04:22:50;95810.25;;;2.23
30001;BMP280;16845;48.670;9.000;2023-12-07T04:25:17;95810.16;;;2.11
30001;BMP280;16845;48.670;9.000;2023-12-07T04:27:45;95814.25;;;2.11
30001;BMP280;16845;48.670;9.000;2023-12-07T04:30:12;95810.84;;;1.98
30001;BMP280;16845;48.670;9.000;2023-12-07T04:32:39;95812.66;;;2.17
30001;BMP280;16845;48.670;9.000;2023-12-07T04:35:05;95813.53;;;2.26
30001;BMP280;16845;48.670;9.000;2023-12-07T04:37:32;95810.22;;;2.24
30001;BMP280;16845;48.670;9.000;2023-12-07T04:39:59;95808.59;;;2.26
30001;BMP280;16845;48.670;9.000;2023-12-07T04:42:25;95810.19;;;2.17
30001;BMP280;16845;48.670;9.000;2023-12-07T04:44:54;95816.84;;;2.24
30001;BMP280;16845;48.670;9.000;2023-12-07T04:47:20;95810.25;;;2.26
30001;BMP280;16845;48.670;9.000;2023-12-07T04:49:47;95810.25;;;2.26
30001;BMP280;16845;48.670;9.000;2023-12-07T04:52:14;95809.50;;;2.36
30001;BMP280;16845;48.670;9.000;2023-12-07T04:54:41;95813.59;;;2.35
30001;BMP280;16845;48.670;9.000;2023-12-07T04:57:07;95806.31;;;2.61
30001;BMP280;16845;48.670;9.000;2023-12-07T04:59:34;95810.50;;;2.72
30001;BMP280;16845;48.670;9.000;2023-12-07T05:02:06;95816.22;;;2.56
30001;BMP280;16845;48.670;9.000;2023-12-07T05:04:32;95812.06;;;2.52
30001;BMP280;16845;48.670;9.000;2023-12-07T05:06:59;95808.72;;;2.44
30001;BMP280;16845;48.670;9.000;2023-12-07T05:09:26;95810.38;;;2.48
30001;BMP280;16845;48.670;9.000;2023-12-07T05:11:52;95812.03;;;2.49
30001;BMP280;16845;48.670;9.000;2023-12-07T05:14:18;95816.09;;;2.40
30001;BMP280;16845;48.670;9.000;2023-12-07T05:16:45;95822.66;;;2.30
30001;BMP280;16845;48.670;9.000;2023-12-07T05:19:13;95827.69;;;2.44
30001;BMP280;16845;48.670;9.000;2023-12-07T05:21:40;95835.97;;;2.46
30001;BMP280;16845;48.670;9.000;2023-12-07T05:24:07;95831.72;;;2.28
30001;BMP280;16845;48.670;9.000;2023-12-07T05:26:33;95827.78;;;2.57
30001;BMP280;16845;48.670;9.000;2023-12-07T05:29:00;95826.84;;;2.40
30001;BMP280;16845;48.670;9.000;2023-12-07T05:31:26;95828.63;;;2.64
30001;BMP280;16845;48.670;9.000;2023-12-07T05:33:53;95829.44;;;2.58
30001;BMP280;16845;48.670;9.000;2023-12-07T05:36:21;95824.47;;;2.57
30001;BMP280;16845;48.670;9.000;2023-12-07T05:38:47;95817.84;;;2.51
30001;BMP280;16845;48.670;9.000;2023-12-07T05:41:14;95825.22;;;2.48
30001;BMP280;16845;48.670;9.000;2023-12-07T05:43:40;95822.81;;;2.51
30001;BMP280;16845;48.670;9.000;2023-12-07T05:46:07;95822.72;;;2.39
30001;BMP280;16845;48.670;9.000;2023-12-07T05:48:34;95826.03;;;2.41
30001;BMP280;16845;48.670;9.000;2023-12-07T05:51:01;95821.19;;;2.64
30001;BMP280;16845;48.670;9.000;2023-12-07T05:53:29;95823.72;;;2.67
30001;BMP280;16845;48.670;9.000;2023-12-07T05:55:55;95819.50;;;2.52
30001;BMP280;16845;48.670;9.000;2023-12-07T05:58:22;95814.53;;;2.51
30001;BMP280;16845;48.670;9.000;2023-12-07T06:00:48;95809.63;;;2.60
30001;BMP280;16845;48.670;9.000;2023-12-07T06:03:15;95809.66;;;2.67
30001;BMP280;16845;48.670;9.000;2023-12-07T06:05:42;95809.72;;;2.73
30001;BMP280;16845;48.670;9.000;2023-12-07T06:08:08;95807.16;;;2.61
30001;BMP280;16845;48.670;9.000;2023-12-07T06:10:36;95812.13;;;2.61
30001;BMP280;16845;48.670;9.000;2023-12-07T06:13:03;95809.63;;;2.57
30001;BMP280;16845;48.670;9.000;2023-12-07T06:15:30;95810.38;;;2.45
30001;BMP280;16845;48.670;9.000;2023-12-07T06:17:58;95809.66;;;2.66
30001;BMP280;16845;48.670;9.000;2023-12-07T06:20:24;95816.09;;;2.34
30001;BMP280;16845;48.670;9.000;2023-12-07T06:22:51;95802.13;;;2.49
30001;BMP280;16845;48.670;9.000;2023-12-07T06:25:17;95809.66;;;2.70
30001;BMP280;16845;48.670;9.000;2023-12-07T06:27:45;95816.25;;;2.62
30001;BMP280;16845;48.670;9.000;2023-12-07T06:30:12;95820.31;;;2.50
30001;BMP280;16845;48.670;9.000;2023-12-07T06:32:39;95816.19;;;2.50
30001;BMP280;16845;48.670;9.000;2023-12-07T06:35:06;95813.78;;;2.65
30001;BMP280;16845;48.670;9.000;2023-12-07T06:37:33;95819.50;;;2.52
30001;BMP280;16845;48.670;9.000;2023-12-07T06:39:59;95812.91;;;2.51
30001;BMP280;16845;48.670;9.000;2023-12-07T06:42:26;95821.06;;;2.40
30001;BMP280;16845;48.670;9.000;2023-12-07T06:44:54;95828.50;;;2.41
30001;BMP280;16845;48.670;9.000;2023-12-07T06:47:20;95821.06;;;2.38
30001;BMP280;16845;48.670;9.000;2023-12-07T06:49:47;95818.59;;;2.40
30001;BMP280;16845;48.670;9.000;2023-12-07T06:52:18;95826.88;;;2.46
30001;BMP280;16845;48.670;9.000;2023-12-07T06:54:45;95825.22;;;2.48
30001;BMP280;16845;48.670;9.000;2023-12-07T06:57:12;95816.19;;;2.52
30001;BMP280;16845;48.670;9.000;2023-12-07T06:59:38;95817.78;;;2.44
30001;BMP280;16845;48.670;9.000;2023-12-07T07:02:06;95826.06;;;2.47
30001;BMP280;16845;48.670;9.000;2023-12-07T07:04:33;95816.16;;;2.49
30001;BMP280;16845;48.670;9.000;2023-12-07T07:06:59;95819.38;;;2.31
30001;BMP280;16845;48.670;9.000;2023-12-07T07:09:26;95827.47;;;2.16
30001;BMP280;16845;48.670;9.000;2023-12-07T07:11:52;95825.84;;;2.13
30001;BMP280;16845;48.670;9.000;2023-12-07T07:14:19;95824.03;;;1.97
30001;BMP280;16845;48.670;9.000;2023-12-07T07:16:46;95819.16;;;2.00
30001;BMP280;16845;48.670;9.000;2023-12-07T07:19:14;95814.19;;;2.00
30001;BMP280;16845;48.670;9.000;2023-12-07T07:21:41;95811.59;;;1.84
30001;BMP280;16845;48.670;9.000;2023-12-07T07:24:07;95816.56;;;1.90
30001;BMP280;16845;48.670;9.000;2023-12-07T07:26:35;95814.16;;;1.96
30001;BMP280;16845;48.670;9.000;2023-12-07T07:29:02;95811.72;;;2.02
30001;BMP280;16845;48.670;9.000;2023-12-07T07:31:29;95809.25;;;2.00
30001;BMP280;16845;48.670;9.000;2023-12-07T07:33:55;95815.00;;;2.01
30001;BMP280;16845;48.670;9.000;2023-12-07T07:36:28;95815.03;;;2.05
30001;BMP280;16845;48.670;9.000;2023-12-07T07:38:55;95825.78;;;2.06
30001;BMP280;16845;48.670;9.000;2023-12-07T07:41:21;95822.50;;;2.07
30001;BMP280;16845;48.670;9.000;2023-12-07T07:43:48;95821.66;;;2.05
30001;BMP280;16845;48.670;9.000;2023-12-07T07:46:14;95831.50;;;1.99
30001;BMP280;16845;48.670;9.000;2023-12-07T07:48:41;95834.56;;;1.71
30001;BMP280;16845;48.670;9.000;2023-12-07T07:51:08;95834.59;;;1.77
30001;BMP280;16845;48.670;9.000;2023-12-07T07:53:36;95834.81;;;2.04
30001;BMP280;16845;48.670;9.000;2023-12-07T07:56:03;95833.31;;;2.18
30001;BMP280;16845;48.670;9.000;2023-12-07T07:58:29;95831.59;;;2.11
30001;BMP280;16845;48.670;9.000;2023-12-07T08:00:56;95837.41;;;2.17
30001;BMP280;16845;48.670;9.000;2023-12-07T08:03:22;95834.97;;;2.24
30001;BMP280;16845;48.670;9.000;2023-12-07T08:05:49;95839.94;;;2.24
30001;BMP280;16845;48.670;9.000;2023-12-07T08:08:15;95840.06;;;2.42
30001;BMP280;16845;48.670;9.000;2023-12-07T08:10:43;95840.97;;;2.55
30001;BMP280;16845;48.670;9.000;2023-12-07T08:13:21;95835.25;;;2.66
30001;BMP280;16845;48.670;9.000;2023-12-07T08:15:48;95827.06;;;2.82
30001;BMP280;16845;48.670;9.000;2023-12-07T08:18:15;95832.88;;;2.83
30001;BMP280;16845;48.670;9.000;2023-12-07T08:20:42;95822.09;;;2.79
30001;BMP280;16845;48.670;9.000;2023-12-07T08:23:08;95827.91;;;2.83
30001;BMP280;16845;48.670;9.000;2023-12-07T08:25:35;95833.72;;;2.86
30001;BMP280;16845;48.670;9.000;2023-12-07T08:28:03;95827.16;;;3.00
30001;BMP280;16845;48.670;9.000;2023-12-07T08:30:30;95834.63;;;3.02
30001;BMP280;16845;48.670;9.000;2023-12-07T08:32:56;95842.03;;;2.97
30001;BMP280;16845;48.670;9.000;2023-12-07T08:35:23;95841.28;;;3.18
30001;BMP280;16845;48.670;9.000;2023-12-07T08:37:49;95841.31;;;3.28
30001;BMP280;16845;48.670;9.000;2023-12-07T08:40:16;95844.69;;;3.53
30001;BMP280;16845;48.670;9.000;2023-12-07T08:42:45;95841.41;;;3.73
30001;BMP280;16845;48.670;9.000;2023-12-07T08:45:16;95834.00;;;3.79
30001;BMP280;16845;48.670;9.000;2023-12-07T08:47:42;95822.44;;;3.99
30001;BMP280;16845;48.670;9.000;2023-12-07T08:50:09;95816.66;;;4.09
30001;BMP280;16845;48.670;9.000;2023-12-07T08:52:36;95812.50;;;4.07
30001;BMP280;16845;48.670;9.000;2023-12-07T08:55:13;95805.03;;;4.34
30001;BMP280;16845;48.670;9.000;2023-12-07T08:57:39;95805.03;;;4.26
30001;BMP280;16845;48.670;9.000;2023-12-07T09:00:07;95800.91;;;4.39
30001;BMP280;16845;48.670;9.000;2023-12-07T09:02:35;95804.19;;;4.39
30001;BMP280;16845;48.670;9.000;2023-12-07T09:05:13;95800.88;;;4.55
30001;BMP280;16845;48.670;9.000;2023-12-07T09:07:39;95799.19;;;4.54
30001;BMP280;16845;48.670;9.000;2023-12-07T09:10:07;95804.13;;;4.78
30001;BMP280;16845;48.670;9.000;2023-12-07T09:12:34;95800.66;;;5.09
30001;BMP280;16845;48.670;9.000;2023-12-07T09:15:06;95795.06;;;4.50
30001;BMP280;16845;48.670;9.000;2023-12-07T09:17:34;95787.38;;;5.14
30001;BMP280;16845;48.670;9.000;2023-12-07T09:20:01;95789.72;;;5.46
30001;BMP280;16845;48.670;9.000;2023-12-07T09:22:28;95791.94;;;5.94
30001;BMP280;16845;48.670;9.000;2023-12-07T09:25:03;95789.16;;;6.25
30001;BMP280;16845;48.670;9.000;2023-12-07T09:27:30;95788.75;;;6.69
30001;BMP280;16845;48.670;9.000;2023-12-07T09:29:57;95782.69;;;6.90
30001;BMP280;16845;48.670;9.000;2023-12-07T09:32:24;95779.94;;;7.11
30001;BMP280;16845;48.670;9.000;2023-12-07T09:35:03;95777.09;;;7.41
30001;BMP280;16845;48.670;9.000;2023-12-07T09:37:30;95775.91;;;7.65
30001;BMP280;16845;48.670;9.000;2023-12-07T09:39:57;95769.22;;;7.68
30001;BMP280;16845;48.670;9.000;2023-12-07T09:42:23;95764.44;;;7.52
30001;BMP280;16845;48.670;9.000;2023-12-07T09:44:57;95769.94;;;7.75
30001;BMP280;16845;48.670;9.000;2023-12-07T09:47:26;95760.00;;;7.73
30001;BMP280;16845;48.670;9.000;2023-12-07T09:50:04;95762.41;;;8.32
30001;BMP280;16845;48.670;9.000;2023-12-07T09:52:31;95752.75;;;9.04
30001;BMP280;16845;48.670;9.000;2023-12-07T09:54:57;95747.34;;;9.23
30001;BMP280;16845;48.670;9.000;2023-12-07T09:57:25;95743.13;;;9.63
30001;BMP280;16845;48.670;9.000;2023-12-07T09:59:56;95748.88;;;9.68
30001;BMP280;16845;48.670;9.000;2023-12-07T10:02:23;95740.88;;;9.89
30001;BMP280;16845;48.670;9.000;2023-12-07T10:05:04;95734.88;;;10.63
30001;BMP280;16845;48.670;9.000;2023-12-07T10:07:32;95732.66;;;10.83
30001;BMP280;16845;48.670;9.000;2023-12-07T10:09:59;95719.44;;;11.07
30001;BMP280;16845;48.670;9.000;2023-12-07T10:12:26;95714.97;;;11.45
30001;BMP280;16845;48.670;9.000;2023-12-07T10:14:52;95704.06;;;12.25
30001;BMP280;16845;48.670;9.000;2023-12-07T10:17:19;95708.38;;;12.72
30001;BMP280;16845;48.670;9.000;2023-12-07T10:19:45;95690.72;;;12.23
30001;BMP280;16845;48.670;9.000;2023-12-07T10:22:16;95689.38;;;13.11
30001;BMP280;16845;48.670;9.000;2023-12-07T10:24:42;95677.25;;;14.68
30001;BMP280;16845;48.670;9.000;2023-12-07T10:27:09;95682.94;;;14.33
30001;BMP280;16845;48.670;9.000;2023-12-07T10:29:37;95676.09;;;13.52
30001;BMP280;16845;48.670;9.000;2023-12-07T10:32:04;95683.25;;;13.18
30001;BMP280;16845;48.670;9.000;2023-12-07T10:34:32;95679.00;;;12.71
30001;BMP280;16845;48.670;9.000;2023-12-07T10:36:59;95689.13;;;13.83
30001;BMP280;16845;48.670;9.000;2023-12-07T10:39:27;95685.09;;;14.22
30001;BMP280;16845;48.670;9.000;2023-12-07T10:42:02;95685.75;;;14.85
30001;BMP280;16845;48.670;9.000;2023-12-07T10:44:28;95689.97;;;15.23
30001;BMP280;16845;48.670;9.000;2023-12-07T10:46:56;95674.72;;;16.66
30001;BMP280;16845;48.670;9.000;2023-12-07T10:49:24;95663.66;;;16.84
30001;BMP280;16845;48.670;9.000;2023-12-07T10:52:03;95659.19;;;15.34
30001;BMP280;16845;48.670;9.000;2023-12-07T10:54:41;95649.28;;;16.36
30001;BMP280;16845;48.670;9.000;2023-12-07T10:57:11;95641.38;;;18.15
30001;BMP280;16845;48.670;9.000;2023-12-07T10:59:39;95641.59;;;18.83
30001;BMP280;16845;48.670;9.000;2023-12-07T11:02:09;95625.06;;;19.46
30001;BMP280;16845;48.670;9.000;2023-12-07T11:04:36;95626.19;;;19.95
30001;BMP280;16845;48.670;9.000;2023-12-07T11:07:09;95629.88;;;18.23
30001;BMP280;16845;48.670;9.000;2023-12-07T11:09:42;95631.69;;;18.79
30001;BMP280;16845;48.670;9.000;2023-12-07T11:12:16;95612.16;;;17.47
30001;BMP280;16845;48.670;9.000;2023-12-07T11:14:43;95614.28;;;14.45
30001;BMP280;16845;48.670;9.000;2023-12-07T11:17:10;95621.72;;;14.08
30001;BMP280;16845;48.670;9.000;2023-12-07T11:19:48;95616.56;;;13.48
30001;BMP280;16845;48.670;9.000;2023-12-07T11:22:15;95617.00;;;12.93
30001;BMP280;16845;48.670;9.000;2023-12-07T11:24:57;95609.63;;;12.17
30001;BMP280;16845;48.670;9.000;2023-12-07T11:27:25;95627.22;;;10.54
30001;BMP280;16845;48.670;9.000;2023-12-07T11:29:51;95622.91;;;9.96
30001;BMP280;16845;48.670;9.000;2023-12-07T11:32:18;95619.69;;;9.23
30001;BMP280;16845;48.670;9.000;2023-12-07T11:34:54;95612.81;;;10.62
30001;BMP280;16845;48.670;9.000;2023-12-07T11:37:21;95611.69;;;10.72
30001;BMP280;16845;48.670;9.000;2023-12-07T11:39:47;95596.28;;;10.84
30001;BMP280;16845;48.670;9.000;2023-12-07T11:42:17;95595.09;;;10.95
30001;BMP280;16845;48.670;9.000;2023-12-07T11:44:47;95583.28;;;12.74
30001;BMP280;16845;48.670;9.000;2023-12-07T11:47:17;95570.91;;;15.48
30001;BMP280;16845;48.670;9.000;2023-12-07T11:49:44;95565.34;;;16.43
30001;BMP280;16845;48.670;9.000;2023-12-07T11:52:14;95560.69;;;16.51
30001;BMP280;16845;48.670;9.000;2023-12-07T11:54:45;95556.47;;;16.01
30001;BMP280;16845;48.670;9.000;2023-12-07T11:57:11;95549.28;;;16.60
30001;BMP280;16845;48.670;9.000;2023-12-07T11:59:40;95540.94;;;16.08
30001;BMP280;16845;48.670;9.000;2023-12-07T12:02:07;95546.00;;;14.66
30001;BMP280;16845;48.670;9.000;2023-12-07T12:04:33;95547.94;;;14.03
30001;BMP280;16845;48.670;9.000;2023-12-07T12:07:00;95550.06;;;13.92
30001;BMP280;16845;48.670;9.000;2023-12-07T12:09:27;95544.59;;;13.83
30001;BMP280;16845;48.670;9.000;2023-12-07T12:11:58;95544.38;;;14.07
30001;BMP280;16845;48.670;9.000;2023-12-07T12:14:25;95538.63;;;14.62
30001;BMP280;16845;48.670;9.000;2023-12-07T12:16:54;95530.31;;;14.97
30001;BMP280;16845;48.670;9.000;2023-12-07T12:19:22;95527.09;;;15.47
30001;BMP280;16845;48.670;9.000;2023-12-07T12:22:00;95520.94;;;15.17
30001;BMP280;16845;48.670;9.000;2023-12-07T12:24:30;95513.66;;;15.64
30001;BMP280;16845;48.670;9.000;2023-12-07T12:26:57;95504.91;;;17.14
30001;BMP280;16845;48.670;9.000;2023-12-07T12:29:24;95494.34;;;16.45
30001;BMP280;16845;48.670;9.000;2023-12-07T12:32:01;95479.16;;;18.10
30001;BMP280;16845;48.670;9.000;2023-12-07T12:34:28;95483.72;;;15.89
30001;BMP280;16845;48.670;9.000;2023-12-07T12:36:55;95475.81;;;15.62
30001;BMP280;16845;48.670;9.000;2023-12-07T12:39:26;95474.59;;;14.07
30001;BMP280;16845;48.670;9.000;2023-12-07T12:41:55;95476.72;;;14.55
30001;BMP280;16845;48.670;9.000;2023-12-07T12:44:22;95477.22;;;14.80
30001;BMP280;16845;48.670;9.000;2023-12-07T12:47:02;95474.25;;;16.42
30001;BMP280;16845;48.670;9.000;2023-12-07T12:49:35;95481.28;;;15.87
30001;BMP280;16845;48.670;9.000;2023-12-07T12:52:02;95476.81;;;18.35
30001;BMP280;16845;48.670;9.000;2023-12-07T12:54:30;95471.72;;;18.21
30001;BMP280;16845;48.670;9.000;2023-12-07T12:56:58;95466.75;;;17.62
30001;BMP280;16845;48.670;9.000;2023-12-07T12:59:25;95463.72;;;17.85
30001;BMP280;16845;48.670;9.000;2023-12-07T13:01:51;95459.75;;;16.76
30001;BMP280;16845;48.670;9.000;2023-12-07T13:04:19;95467.69;;;15.73
30001;BMP280;16845;48.670;9.000;2023-12-07T13:06:46;95477.03;;;13.51
30001;BMP280;16845;48.670;9.000;2023-12-07T13:09:13;95471.44;;;14.41
30001;BMP280;16845;48.670;9.000;2023-12-07T13:11:39;95461.28;;;14.04
30001;BMP280;16845;48.670;9.000;2023-12-07T13:14:06;95453.47;;;14.84
30001;BMP280;16845;48.670;9.000;2023-12-07T13:16:32;95479.94;;;10.01
30001;BMP280;16845;48.670;9.000;2023-12-07T13:18:59;95473.53;;;10.49
30001;BMP280;16845;48.670;9.000;2023-12-07T13:21:27;95472.84;;;11.25
30001;BMP280;16845;48.670;9.000;2023-12-07T13:23:53;95473.59;;;10.75
30001;BMP280;16845;48.670;9.000;2023-12-07T13:26:20;95478.66;;;11.75
30001;BMP280;16845;48.670;9.000;2023-12-07T13:28:47;95475.03;;;11.60
30001;BMP280;16845;48.670;9.000;2023-12-07T13:31:14;95482.31;;;10.91
30001;BMP280;16845;48.670;9.000;2023-12-07T13:33:40;95475.91;;;11.33
30001;BMP280;16845;48.670;9.000;2023-12-07T13:36:20;95493.88;;;10.95
30001;BMP280;16845;48.670;9.000;2023-12-07T13:38:48;95479.38;;;10.77
30001;BMP280;16845;48.670;9.000;2023-12-07T13:41:15;95472.56;;;10.53
30001;BMP280;16845;48.670;9.000;2023-12-07T13:43:41;95466.91;;;10.74
30001;BMP280;16845;48.670;9.000;2023-12-07T13:46:08;95460.28;;;10.45
30001;BMP280;16845;48.670;9.000;2023-12-07T13:48:35;95457.94;;;10.67
30001;BMP280;16845;48.670;9.000;2023-12-07T13:51:02;95475.84;;;9.97
30001;BMP280;16845;48.670;9.000;2023-12-07T13:53:28;95476.94;;;9.87
30001;BMP280;16845;48.670;9.000;2023-12-07T13:55:56;95466.88;;;10.75
30001;BMP280;16845;48.670;9.000;2023-12-07T13:58:22;95475.97;;;8.60
30001;BMP280;16845;48.670;9.000;2023-12-07T14:00:49;95464.81;;;9.10
30001;BMP280;16845;48.670;9.000;2023-12-07T14:03:16;95468.78;;;8.07
30001;BMP280;16845;48.670;9.000;2023-12-07T14:05:42;95469.56;;;8.09
30001;BMP280;16845;48.670;9.000;2023-12-07T14:08:09;95472.84;;;8.11
30001;BMP280;16845;48.670;9.000;2023-12-07T14:10:36;95472.13;;;7.65
30001;BMP280;16845;48.670;9.000;2023-12-07T14:13:03;95469.00;;;7.54
30001;BMP280;16845;48.670;9.000;2023-12-07T14:15:30;95465.22;;;6.86
30001;BMP280;16845;48.670;9.000;2023-12-07T14:18:10;95468.16;;;6.56
30001;BMP280;16845;48.670;9.000;2023-12-07T14:20:37;95461.84;;;6.34
30001;BMP280;16845;48.670;9.000;2023-12-07T14:23:23;95465.78;;;7.01